createdAt,value
2023-04-16T00:02:15.682Z,10.65
2023-04-16T00:04:44.792Z,11.60
2023-04-16T00:07:11.761Z,11.10
2023-04-16T00:09:38.397Z,10.45
2023-04-16T00:12:06.232Z,11.30
2023-04-16T00:14:33.042Z,11.15
2023-04-16T00:16:59.745Z,11.38
2023-04-16T00:19:26.476Z,11.13
2023-04-16T00:21:56.097Z,11.23
2023-04-16T00:24:22.822Z,11.73
2023-04-16T00:26:51.991Z,10.73
2023-04-16T00:29:18.888Z,10.45
2023-04-16T00:31:45.698Z,11.60
2023-04-16T00:34:12.327Z,12.02
2023-04-16T00:36:39.038Z,10.90
2023-04-16T00:39:05.640Z,11.27
2023-04-16T00:41:32.247Z,10.90
2023-04-16T00:43:58.866Z,11.38
2023-04-16T00:46:26.096Z,11.98
2023-04-16T00:48:55.896Z,11.55
2023-04-16T00:51:22.936Z,11.88
2023-04-16T00:53:50.455Z,10.88
2023-04-16T00:56:17.969Z,10.95
2023-04-16T00:58:44.988Z,10.95
2023-04-16T01:01:11.788Z,11.02
2023-04-16T01:03:40.938Z,10.88
2023-04-16T01:06:08.228Z,9.90
2023-04-16T01:08:35.206Z,10.25
2023-04-16T01:11:02.241Z,10.20
2023-04-16T01:13:29.443Z,11.02
2023-04-16T01:15:56.228Z,10.88
2023-04-16T01:18:23.991Z,10.40
2023-04-16T01:20:51.267Z,10.63
2023-04-16T01:23:18.727Z,10.75
2023-04-16T01:25:48.465Z,9.77
2023-04-16T01:28:17.314Z,10.15
2023-04-16T01:30:44.306Z,10.27
2023-04-16T01:33:11.724Z,10.13
2023-04-16T01:35:39.025Z,10.65
2023-04-16T01:38:08.878Z,9.70
2023-04-16T01:40:36.541Z,9.65
2023-04-16T01:43:03.542Z,10.63
2023-04-16T01:45:32.217Z,8.77
2023-04-16T01:47:59.052Z,9.90
2023-04-16T01:50:25.897Z,9.50
2023-04-16T01:52:52.638Z,9.52
2023-04-16T01:55:21.853Z,9.45
2023-04-16T01:57:51.157Z,8.63
2023-04-16T02:00:17.886Z,9.25
2023-04-16T02:02:44.703Z,9.40
2023-04-16T02:05:11.484Z,9.57
2023-04-16T02:07:38.170Z,9.20
2023-04-16T02:10:08.845Z,8.90
2023-04-16T02:12:35.545Z,9.02
2023-04-16T02:15:05.120Z,8.90
2023-04-16T02:17:31.881Z,9.30
2023-04-16T02:19:58.676Z,9.18
2023-04-16T02:22:25.389Z,8.43
2023-04-16T02:24:52.100Z,8.00
2023-04-16T02:27:18.701Z,9.02
2023-04-16T02:29:47.541Z,9.38
2023-04-16T02:32:14.234Z,9.10
2023-04-16T02:34:41.622Z,8.52
2023-04-16T02:37:08.275Z,8.45
2023-04-16T02:39:35.016Z,8.70
2023-04-16T02:42:03.816Z,9.02
2023-04-16T02:44:30.575Z,9.30
2023-04-16T02:46:57.260Z,8.73
2023-04-16T02:49:26.524Z,8.82
2023-04-16T02:51:53.148Z,9.05
2023-04-16T02:54:19.823Z,9.10
2023-04-16T02:56:46.435Z,9.00
2023-04-16T02:59:15.812Z,8.90
2023-04-16T03:01:42.556Z,9.20
2023-04-16T03:04:09.430Z,9.50
2023-04-16T03:06:36.135Z,9.43
2023-04-16T03:09:02.884Z,9.30
2023-04-16T03:11:32.082Z,9.00
2023-04-16T03:13:58.734Z,9.55
2023-04-16T03:16:25.521Z,9.93
2023-04-16T03:18:52.213Z,9.75
2023-04-16T03:21:19.165Z,9.60
2023-04-16T03:23:45.775Z,9.90
2023-04-16T03:26:12.439Z,9.77
2023-04-16T03:28:39.077Z,10.30
2023-04-16T03:31:06.085Z,10.52
2023-04-16T03:33:37.476Z,9.80
2023-04-16T03:36:04.383Z,10.35
2023-04-16T03:38:31.149Z,11.07
2023-04-16T03:40:57.849Z,10.30
2023-04-16T03:43:24.505Z,10.05
2023-04-16T03:45:51.317Z,10.82
2023-04-16T03:48:20.215Z,10.57
2023-04-16T03:50:49.550Z,11.10
2023-04-16T03:53:16.303Z,9.95
2023-04-16T03:55:43.147Z,10.88
2023-04-16T03:58:10.185Z,10.13
2023-04-16T04:00:39.644Z,10.40
2023-04-16T04:03:06.425Z,10.73
2023-04-16T04:05:40.497Z,10.50
2023-04-16T04:10:35.703Z,10.50
2023-04-16T04:13:05.036Z,10.23
2023-04-16T04:15:32.105Z,10.00
2023-04-16T04:17:59.516Z,11.68
2023-04-16T04:20:26.346Z,10.30
2023-04-16T04:22:55.243Z,11.60
2023-04-16T04:25:21.904Z,11.02
2023-04-16T04:27:49.135Z,10.43
2023-04-16T04:30:15.818Z,11.32
2023-04-16T04:32:42.480Z,11.15
2023-04-16T04:35:12.135Z,11.48
2023-04-16T04:37:41.572Z,11.77
2023-04-16T04:40:08.850Z,11.55
2023-04-16T04:42:36.728Z,11.45
2023-04-16T04:45:05.868Z,12.15
2023-04-16T04:47:32.617Z,10.70
2023-04-16T04:49:59.322Z,11.68
2023-04-16T04:52:26.237Z,12.00
2023-04-16T04:54:55.362Z,11.38
2023-04-16T04:57:22.074Z,12.07
2023-04-16T04:59:48.710Z,11.40
2023-04-16T05:02:17.966Z,11.68
2023-04-16T05:04:44.782Z,11.75
2023-04-16T05:07:13.766Z,11.30
2023-04-16T05:09:40.517Z,11.18
2023-04-16T05:12:09.789Z,10.77
2023-04-16T05:14:36.448Z,11.35
2023-04-16T05:17:03.175Z,11.85
2023-04-16T05:19:32.110Z,11.82
2023-04-16T05:22:02.588Z,12.52
2023-04-16T05:24:29.438Z,12.75
2023-04-16T05:26:57.301Z,10.85
2023-04-16T05:29:26.612Z,11.13
2023-04-16T05:31:53.270Z,11.43
2023-04-16T05:34:19.929Z,11.43
2023-04-16T05:36:47.035Z,11.88
2023-04-16T05:39:16.874Z,11.57
2023-04-16T05:41:43.540Z,10.80
2023-04-16T05:44:10.164Z,10.68
2023-04-16T05:46:36.886Z,11.13
2023-04-16T05:49:03.705Z,11.13
2023-04-16T05:51:33.103Z,10.30
2023-04-16T05:53:59.738Z,10.02
2023-04-16T05:56:27.060Z,10.18
2023-04-16T05:58:53.692Z,9.68
2023-04-16T06:01:20.990Z,10.40
2023-04-16T06:03:47.734Z,10.30
2023-04-16T06:06:14.403Z,10.18
2023-04-16T06:08:41.072Z,9.48
2023-04-16T06:11:07.760Z,8.43
2023-04-16T06:13:34.421Z,8.50
2023-04-16T06:16:01.064Z,8.50
2023-04-16T06:18:27.784Z,8.32
2023-04-16T06:20:54.634Z,8.80
2023-04-16T06:23:24.040Z,7.93
2023-04-16T06:25:50.653Z,8.63
2023-04-16T06:28:19.508Z,7.47
2023-04-16T06:30:47.097Z,8.10
2023-04-16T06:33:13.761Z,8.60
2023-04-16T06:35:40.937Z,7.97
2023-04-16T06:38:07.852Z,7.90
2023-04-16T06:40:36.959Z,8.70
2023-04-16T06:43:08.328Z,7.70
2023-04-16T06:45:35.162Z,7.55
2023-04-16T06:48:05.023Z,7.90
2023-04-16T06:50:31.857Z,7.80
2023-04-16T06:53:00.810Z,8.30
2023-04-16T06:55:27.508Z,7.45
2023-04-16T06:57:56.750Z,7.50
2023-04-16T07:00:26.176Z,7.35
2023-04-16T07:02:58.759Z,7.60
2023-04-16T07:05:28.127Z,7.32
2023-04-16T07:07:57.494Z,7.65
2023-04-16T07:10:24.216Z,7.13
2023-04-16T07:12:50.917Z,6.88
2023-04-16T07:15:20.124Z,7.93
2023-04-16T07:17:46.785Z,7.30
2023-04-16T07:20:13.411Z,6.97
2023-04-16T07:22:40.368Z,7.18
2023-04-16T07:25:07.641Z,7.22
2023-04-16T07:27:34.276Z,7.28
2023-04-16T07:30:00.929Z,6.63
2023-04-16T07:32:27.610Z,7.00
2023-04-16T07:34:54.482Z,7.60
2023-04-16T07:37:21.087Z,7.05
2023-04-16T07:39:47.797Z,7.07
2023-04-16T07:42:14.524Z,7.22
2023-04-16T07:44:41.236Z,7.90
2023-04-16T07:47:07.925Z,7.15
2023-04-16T07:49:34.586Z,7.57
2023-04-16T07:52:01.838Z,7.75
2023-04-16T07:54:29.161Z,8.88
2023-04-16T07:56:55.929Z,8.63
2023-04-16T07:59:24.371Z,8.68
2023-04-16T08:01:53.133Z,8.63
2023-04-16T08:04:26.246Z,8.98
2023-04-16T08:06:58.056Z,9.00
2023-04-16T08:09:27.758Z,8.82
2023-04-16T08:11:54.423Z,8.98
2023-04-16T08:14:23.569Z,8.82
2023-04-16T08:16:52.425Z,8.82
2023-04-16T08:19:19.252Z,8.65
2023-04-16T08:21:46.535Z,8.25
2023-04-16T08:24:13.353Z,9.43
2023-04-16T08:26:40.522Z,8.98
2023-04-16T08:29:07.480Z,8.35
2023-04-16T08:31:36.697Z,8.50
2023-04-16T08:34:06.115Z,8.25
2023-04-16T08:36:32.868Z,8.20
2023-04-16T08:38:59.489Z,7.82
2023-04-16T08:41:30.490Z,8.00
2023-04-16T08:44:02.192Z,8.48
2023-04-16T08:46:34.161Z,8.18
2023-04-16T08:49:02.104Z,8.27
2023-04-16T08:51:33.891Z,8.50
2023-04-16T08:54:04.661Z,7.68
2023-04-16T08:56:35.905Z,8.02
2023-04-16T08:59:05.604Z,7.63
2023-04-16T09:01:41.610Z,8.02
2023-04-16T09:04:09.213Z,7.65
2023-04-16T09:06:37.182Z,7.45
2023-04-16T09:09:05.619Z,8.57
2023-04-16T09:11:32.772Z,8.25
2023-04-16T09:14:00.798Z,7.60
2023-04-16T09:16:30.659Z,7.50
2023-04-16T09:18:57.340Z,8.27
2023-04-16T09:21:24.173Z,6.43
2023-04-16T09:23:53.355Z,7.70
2023-04-16T09:26:20.824Z,7.70
2023-04-16T09:28:51.680Z,7.65
2023-04-16T09:31:20.622Z,6.65
2023-04-16T09:34:05.317Z,7.30
2023-04-16T09:36:33.147Z,6.85
2023-04-16T09:39:03.707Z,7.63
2023-04-16T09:41:39.580Z,7.45
2023-04-16T09:44:06.275Z,7.35
2023-04-16T09:46:40.895Z,7.13
2023-04-16T09:49:17.173Z,6.50
2023-04-16T09:51:47.912Z,6.35
2023-04-16T09:54:14.561Z,6.55
2023-04-16T09:56:46.442Z,7.55
2023-04-16T09:59:23.351Z,6.63
2023-04-16T10:01:50.433Z,7.30
2023-04-16T10:04:20.476Z,6.68
2023-04-16T10:07:06.172Z,7.75
2023-04-16T10:09:41.855Z,6.30
2023-04-16T10:12:12.792Z,6.18
2023-04-16T10:14:41.980Z,6.32
2023-04-16T10:17:09.588Z,6.70
2023-04-16T10:19:39.210Z,6.72
2023-04-16T10:22:08.311Z,5.85
2023-04-16T10:24:35.541Z,6.43
2023-04-16T10:27:04.676Z,5.68
2023-04-16T10:29:32.783Z,6.07
2023-04-16T10:32:01.180Z,5.70
2023-04-16T10:34:29.821Z,5.03
2023-04-16T10:36:56.583Z,5.90
2023-04-16T10:39:25.299Z,5.13
2023-04-16T10:42:13.065Z,5.05
2023-04-16T10:44:43.491Z,5.10
2023-04-16T10:47:13.290Z,5.53
2023-04-16T10:49:43.701Z,5.18
2023-04-16T10:52:18.788Z,5.15
2023-04-16T10:54:48.353Z,4.60
2023-04-16T10:57:21.081Z,4.50
2023-04-16T10:59:49.092Z,4.50
2023-04-16T11:02:18.547Z,4.85
2023-04-16T11:04:47.348Z,5.15
2023-04-16T11:07:20.392Z,5.03
2023-04-16T11:09:52.547Z,4.95
2023-04-16T11:12:39.090Z,5.07
2023-04-16T11:15:14.107Z,4.80
2023-04-16T11:17:44.909Z,4.55
2023-04-16T11:20:22.995Z,4.70
2023-04-16T11:22:51.603Z,4.15
2023-04-16T11:25:24.406Z,4.15
2023-04-16T11:27:52.259Z,4.65
2023-04-16T11:30:28.392Z,4.50
2023-04-16T11:32:58.294Z,3.90
2023-04-16T11:35:25.393Z,4.22
2023-04-16T11:37:57.060Z,4.80
2023-04-16T11:40:24.390Z,4.82
2023-04-16T11:42:53.192Z,4.38
2023-04-16T11:45:19.869Z,4.35
2023-04-16T11:47:55.479Z,4.32
2023-04-16T11:50:28.097Z,4.68
2023-04-16T11:52:56.534Z,4.22
2023-04-16T11:55:24.083Z,3.95
2023-04-16T11:57:52.370Z,3.67
2023-04-16T12:00:24.352Z,4.10
2023-04-16T12:02:55.654Z,4.40
2023-04-16T12:05:35.066Z,3.50
2023-04-16T12:08:12.336Z,3.28
2023-04-16T12:10:54.286Z,3.45
2023-04-16T12:13:23.512Z,3.70
2023-04-16T12:15:53.907Z,3.58
2023-04-16T12:18:23.015Z,3.88
2023-04-16T12:20:52.919Z,4.38
2023-04-16T12:23:24.714Z,4.20
2023-04-16T12:25:55.023Z,4.03
2023-04-16T12:28:40.270Z,4.13
2023-04-16T12:31:07.628Z,4.38
2023-04-16T12:33:34.386Z,4.22
2023-04-16T12:36:16.434Z,4.35
2023-04-16T12:38:47.587Z,5.10
2023-04-16T12:41:14.764Z,5.43
2023-04-16T12:43:41.413Z,5.05
2023-04-16T12:46:08.116Z,5.63
2023-04-16T12:48:34.960Z,5.63
2023-04-16T12:51:01.824Z,6.15
2023-04-16T12:53:28.921Z,7.22
2023-04-16T12:55:58.066Z,7.97
2023-04-16T12:58:27.196Z,8.70
2023-04-16T13:00:53.809Z,8.55
2023-04-16T13:03:21.660Z,8.73
2023-04-16T13:05:48.386Z,9.15
2023-04-16T13:08:15.397Z,8.63
2023-04-16T13:10:42.449Z,9.10
2023-04-16T13:13:09.092Z,9.30
2023-04-16T13:15:35.970Z,8.88
2023-04-16T13:18:02.740Z,8.90
2023-04-16T13:20:29.512Z,9.07
2023-04-16T13:22:56.656Z,9.45
2023-04-16T13:25:25.765Z,9.60
2023-04-16T13:27:52.638Z,9.45
2023-04-16T13:30:19.332Z,8.90
2023-04-16T13:32:46.723Z,9.20
2023-04-16T13:35:16.072Z,10.07
2023-04-16T13:37:42.729Z,9.90
2023-04-16T13:40:09.682Z,9.70
2023-04-16T13:42:36.355Z,10.50
2023-04-16T13:45:03.625Z,9.80
2023-04-16T13:47:30.583Z,10.10
2023-04-16T13:49:59.534Z,10.82
2023-04-16T13:52:28.515Z,10.30
2023-04-16T13:54:55.303Z,10.10
2023-04-16T13:57:22.206Z,10.23
2023-04-16T13:59:48.935Z,9.85
2023-04-16T14:02:20.354Z,11.20
2023-04-16T14:04:47.354Z,10.52
2023-04-16T14:07:17.148Z,10.68
2023-04-16T14:09:43.984Z,11.00
2023-04-16T14:12:10.859Z,12.75
2023-04-16T14:14:40.150Z,9.90
2023-04-16T14:17:07.599Z,10.75
2023-04-16T14:19:34.241Z,10.38
2023-04-16T14:22:00.888Z,11.43
2023-04-16T14:24:27.700Z,11.25
2023-04-16T14:26:54.477Z,10.80
2023-04-16T14:29:21.311Z,10.70
2023-04-16T14:31:48.126Z,10.40
2023-04-16T14:34:14.886Z,10.43
2023-04-16T14:36:41.986Z,10.60
2023-04-16T14:39:09.568Z,10.23
2023-04-16T14:41:36.486Z,10.57
2023-04-16T14:44:06.022Z,10.88
2023-04-16T14:46:33.633Z,10.38
2023-04-16T14:49:01.368Z,10.32
2023-04-16T14:51:28.170Z,10.23
2023-04-16T14:53:54.912Z,11.15
2023-04-16T14:56:22.004Z,10.90
2023-04-16T14:58:48.790Z,10.90
2023-04-16T15:01:18.178Z,11.63
2023-04-16T15:03:47.599Z,13.00
2023-04-16T15:06:16.640Z,11.82
2023-04-16T15:08:43.738Z,12.32
2023-04-16T15:11:10.743Z,13.73
2023-04-16T15:13:37.922Z,13.25
2023-04-16T15:16:07.474Z,13.30
2023-04-16T15:18:34.672Z,13.45
2023-04-16T15:21:01.871Z,14.60
2023-04-16T15:23:29.001Z,14.07
2023-04-16T15:25:58.801Z,14.35
2023-04-16T15:28:28.184Z,14.65
2023-04-16T15:30:56.658Z,14.85
2023-04-16T15:33:23.721Z,14.90
2023-04-16T15:35:51.649Z,15.15
2023-04-16T15:38:21.406Z,15.10
2023-04-16T15:40:50.967Z,14.77
2023-04-16T15:43:22.822Z,15.80
2023-04-16T15:45:49.936Z,15.13
2023-04-16T15:48:19.274Z,15.25
2023-04-16T15:50:46.451Z,15.55
2023-04-16T15:53:13.599Z,16.30
2023-04-16T15:55:40.664Z,14.00
2023-04-16T15:58:07.792Z,15.73
2023-04-16T16:00:34.818Z,14.77
2023-04-16T16:03:02.663Z,14.77
2023-04-16T16:05:32.401Z,14.05
2023-04-16T16:07:59.605Z,14.63
2023-04-16T16:10:26.776Z,14.82
2023-04-16T16:12:53.824Z,14.13
2023-04-16T16:15:21.085Z,14.38
2023-04-16T16:17:48.315Z,14.68
2023-04-16T16:20:15.962Z,16.33
2023-04-16T16:22:45.248Z,13.38
2023-04-16T16:25:12.158Z,14.40
2023-04-16T16:27:40.732Z,13.98
2023-04-16T16:30:10.921Z,14.85
2023-04-16T16:32:40.866Z,14.90
2023-04-16T16:35:11.601Z,13.45
2023-04-16T16:37:38.558Z,14.07
2023-04-16T16:40:05.920Z,13.98
2023-04-16T16:42:32.719Z,14.15
2023-04-16T16:45:05.298Z,15.10
2023-04-16T16:47:35.309Z,14.80
2023-04-16T16:50:03.106Z,13.75
2023-04-16T16:52:32.803Z,13.75
2023-04-16T16:54:59.545Z,13.73
2023-04-16T16:57:26.406Z,14.32
2023-04-16T16:59:54.562Z,15.02
2023-04-16T17:02:21.568Z,13.70
2023-04-16T17:04:48.423Z,14.02
2023-04-16T17:07:15.385Z,14.73
2023-04-16T17:09:42.198Z,12.65
2023-04-16T17:12:11.336Z,13.52
2023-04-16T17:14:38.120Z,13.35
2023-04-16T17:17:04.988Z,12.98
2023-04-16T17:19:31.955Z,12.15
2023-04-16T17:22:02.716Z,12.52
2023-04-16T17:24:29.702Z,12.73
2023-04-16T17:26:56.988Z,12.52
2023-04-16T17:29:26.167Z,11.90
2023-04-16T17:31:53.940Z,12.77
2023-04-16T17:34:21.297Z,11.48
2023-04-16T17:36:50.682Z,12.43
2023-04-16T17:39:17.947Z,11.57
2023-04-16T17:41:45.452Z,12.05
2023-04-16T17:44:14.787Z,11.38
2023-04-16T17:46:41.654Z,12.10
2023-04-16T17:49:08.374Z,11.93
2023-04-16T17:51:35.167Z,12.15
2023-04-16T17:54:03.415Z,12.30
2023-04-16T17:56:30.304Z,12.38
2023-04-16T17:58:57.535Z,12.40
2023-04-16T18:01:27.320Z,12.52
2023-04-16T18:03:54.686Z,11.77
2023-04-16T18:06:21.531Z,13.65
2023-04-16T18:08:48.483Z,12.23
2023-04-16T18:11:15.270Z,13.98
2023-04-16T18:13:44.677Z,12.95
2023-04-16T18:16:18.075Z,14.00
2023-04-16T18:18:47.835Z,14.00
2023-04-16T18:21:14.803Z,12.85
2023-04-16T18:23:43.842Z,12.52
2023-04-16T18:26:11.192Z,10.82
2023-04-16T18:28:39.223Z,11.23
2023-04-16T18:31:08.704Z,12.18
2023-04-16T18:33:54.206Z,11.40
2023-04-16T18:36:23.193Z,10.52
2023-04-16T18:39:00.204Z,11.65
2023-04-16T18:41:31.343Z,12.10
2023-04-16T18:43:58.557Z,13.27
2023-04-16T18:46:26.772Z,12.63
2023-04-16T18:48:53.701Z,13.55
2023-04-16T18:51:21.371Z,13.75
2023-04-16T18:53:48.558Z,14.90
2023-04-16T18:56:15.960Z,15.38
2023-04-16T18:58:43.291Z,15.25
2023-04-16T19:01:13.235Z,15.65
2023-04-16T19:03:42.635Z,16.80
2023-04-16T19:06:11.932Z,19.35
2023-04-16T19:08:38.914Z,20.80
2023-04-16T19:11:06.036Z,21.08
2023-04-16T19:13:33.393Z,20.92
2023-04-16T19:16:01.790Z,21.50
2023-04-16T19:18:28.970Z,22.52
2023-04-16T19:21:00.648Z,21.77
2023-04-16T19:23:30.872Z,22.10
2023-04-16T19:25:57.821Z,22.42
2023-04-16T19:28:25.502Z,22.67
2023-04-16T19:30:53.586Z,23.17
2023-04-16T19:33:20.876Z,23.55
2023-04-16T19:35:47.999Z,23.38
2023-04-16T19:38:17.492Z,23.42
2023-04-16T19:40:46.674Z,22.75
2023-04-16T19:43:16.434Z,24.17
2023-04-16T19:45:48.242Z,22.73
2023-04-16T19:48:15.595Z,24.30
2023-04-16T19:50:43.262Z,23.92
2023-04-16T19:53:11.176Z,23.55
2023-04-16T19:55:44.266Z,23.85
2023-04-16T19:58:11.284Z,24.83
2023-04-16T20:00:41.212Z,25.67
2023-04-16T20:03:08.464Z,25.15
2023-04-16T20:05:35.714Z,24.92
2023-04-16T20:08:05.374Z,24.48
2023-04-16T20:10:32.143Z,24.27
2023-04-16T20:12:59.095Z,25.08
2023-04-16T20:15:25.975Z,23.98
2023-04-16T20:17:53.304Z,24.90
2023-04-16T20:20:22.536Z,24.52
2023-04-16T20:22:49.731Z,23.73
2023-04-16T20:25:19.225Z,25.30
2023-04-16T20:27:46.542Z,24.20
2023-04-16T20:30:13.937Z,24.08
2023-04-16T20:32:42.890Z,24.40
2023-04-16T20:35:11.345Z,24.20
2023-04-16T20:37:38.797Z,25.15
2023-04-16T20:40:08.661Z,24.73
2023-04-16T20:42:35.531Z,26.25
2023-04-16T20:45:02.232Z,24.85
2023-04-16T20:47:28.978Z,25.25
2023-04-16T20:49:58.135Z,24.48
2023-04-16T20:52:27.305Z,25.00
2023-04-16T20:54:53.978Z,25.30
2023-04-16T20:57:21.023Z,25.27
2023-04-16T20:59:47.765Z,24.58
2023-04-16T21:02:17.544Z,27.17
2023-04-16T21:04:47.036Z,26.92
2023-04-16T21:07:13.851Z,27.10
2023-04-16T21:09:40.649Z,27.33
2023-04-16T21:12:09.763Z,28.05
2023-04-16T21:14:36.492Z,27.55
2023-04-16T21:17:05.483Z,26.95
2023-04-16T21:19:32.087Z,26.75
2023-04-16T21:21:58.724Z,28.33
2023-04-16T21:24:25.513Z,26.67
2023-04-16T21:26:52.205Z,24.85
2023-04-16T21:29:18.842Z,25.73
2023-04-16T21:31:45.894Z,25.60
2023-04-16T21:34:12.847Z,26.25
2023-04-16T21:36:42.071Z,26.25
2023-04-16T21:39:11.390Z,26.67
2023-04-16T21:41:40.543Z,25.73
2023-04-16T21:44:07.186Z,26.40
2023-04-16T21:46:34.084Z,25.42
2023-04-16T21:49:00.781Z,26.90
2023-04-16T21:51:30.080Z,24.75
2023-04-16T21:53:57.437Z,25.38
2023-04-16T21:56:27.386Z,24.35
2023-04-16T21:58:54.099Z,22.35
2023-04-16T22:01:20.926Z,21.52
2023-04-16T22:03:51.990Z,21.92
2023-04-16T22:06:20.413Z,20.70
2023-04-16T22:08:49.894Z,21.40
2023-04-16T22:11:19.264Z,21.92
2023-04-16T22:13:47.786Z,20.25
2023-04-16T22:16:15.446Z,20.55
2023-04-16T22:18:42.841Z,20.85
2023-04-16T22:21:11.815Z,20.30
2023-04-16T22:23:38.486Z,21.15
2023-04-16T22:26:08.944Z,21.42
2023-04-16T22:28:37.784Z,20.73
2023-04-16T22:31:04.540Z,21.10
2023-04-16T22:33:31.282Z,22.15
2023-04-16T22:35:59.806Z,21.58
2023-04-16T22:38:28.949Z,22.02
2023-04-16T22:40:55.744Z,21.95
2023-04-16T22:43:22.381Z,21.17
2023-04-16T22:45:49.058Z,20.63
2023-04-16T22:48:16.370Z,21.35
2023-04-16T22:50:48.465Z,21.88
2023-04-16T22:53:15.326Z,20.65
2023-04-16T22:55:42.024Z,21.30
2023-04-16T22:58:11.343Z,21.30
2023-04-16T23:00:42.774Z,20.00
2023-04-16T23:03:09.932Z,21.10
2023-04-16T23:05:36.681Z,20.30
2023-04-16T23:08:03.350Z,20.33
2023-04-16T23:10:30.146Z,21.08
2023-04-16T23:12:56.836Z,20.38
2023-04-16T23:15:23.549Z,21.70
2023-04-16T23:17:52.596Z,19.83
2023-04-16T23:20:19.326Z,20.02
2023-04-16T23:22:46.668Z,20.15
2023-04-16T23:25:13.359Z,19.05
2023-04-16T23:27:40.004Z,19.35
2023-04-16T23:30:07.297Z,19.10
2023-04-16T23:32:34.236Z,18.98
2023-04-16T23:35:01.187Z,20.70
2023-04-16T23:37:27.877Z,19.95
2023-04-16T23:39:57.222Z,18.48
2023-04-16T23:42:23.873Z,19.13
2023-04-16T23:44:50.728Z,19.08
2023-04-16T23:47:17.372Z,19.05
2023-04-16T23:49:44.013Z,19.08
2023-04-16T23:52:10.783Z,19.77
2023-04-16T23:54:37.430Z,19.38
2023-04-16T23:57:04.182Z,18.85
2023-04-16T23:59:33.277Z,20.90
